createdAt,value
2018-11-22T00:00:02.178Z,39.17
2018-11-22T00:02:05.884Z,35.47
2018-11-22T00:04:09.145Z,32.70
2018-11-22T00:06:12.452Z,34.03
2018-11-22T00:08:15.709Z,31.97
2018-11-22T00:10:19.639Z,36.77
2018-11-22T00:12:23.061Z,35.27
2018-11-22T00:14:26.515Z,31.00
2018-11-22T00:16:29.874Z,39.07
2018-11-22T00:18:33.170Z,34.00
2018-11-22T00:20:36.443Z,34.63
2018-11-22T00:22:39.701Z,33.53
2018-11-22T00:24:43.467Z,31.70
2018-11-22T00:26:48.262Z,35.90
2018-11-22T00:28:51.866Z,33.60
2018-11-22T00:30:55.299Z,37.50
2018-11-22T00:32:58.732Z,35.33
2018-11-22T00:35:02.001Z,38.17
2018-11-22T00:37:05.544Z,33.00
2018-11-22T00:39:10.646Z,37.03
2018-11-22T00:41:13.901Z,37.50
2018-11-22T00:43:17.179Z,38.33
2018-11-22T00:45:22.755Z,40.70
2018-11-22T00:47:26.211Z,40.53
2018-11-22T00:49:29.760Z,36.20
2018-11-22T00:51:33.014Z,45.43
2018-11-22T00:53:36.281Z,39.60
2018-11-22T00:55:39.595Z,34.07
2018-11-22T00:57:43.290Z,37.07
2018-11-22T00:59:46.547Z,33.87
2018-11-22T01:01:51.631Z,40.37
2018-11-22T01:03:55.089Z,39.80
2018-11-22T01:05:58.324Z,38.97
2018-11-22T01:08:01.607Z,32.13
2018-11-22T01:10:06.169Z,38.43
2018-11-22T01:12:09.422Z,36.43
2018-11-22T01:14:12.791Z,30.43
2018-11-22T01:16:16.161Z,36.97
2018-11-22T01:18:20.183Z,46.17
2018-11-22T01:20:25.948Z,32.90
2018-11-22T01:22:29.282Z,36.33
2018-11-22T01:24:32.567Z,38.73
2018-11-22T01:26:35.881Z,39.27
2018-11-22T01:28:40.807Z,38.70
2018-11-22T01:30:44.062Z,40.07
2018-11-22T01:32:48.522Z,36.77
2018-11-22T01:34:52.207Z,36.00
2018-11-22T01:36:55.619Z,39.03
2018-11-22T01:38:58.900Z,39.43
2018-11-22T01:41:02.181Z,40.17
2018-11-22T01:43:05.703Z,34.97
2018-11-22T01:45:10.427Z,43.93
2018-11-22T01:47:13.677Z,29.87
2018-11-22T01:49:16.937Z,33.53
2018-11-22T01:51:20.804Z,34.93
2018-11-22T01:53:24.177Z,42.90
2018-11-22T01:55:27.559Z,30.57
2018-11-22T01:57:31.978Z,39.10
2018-11-22T01:59:35.269Z,36.70
2018-11-22T02:01:38.530Z,37.53
2018-11-22T02:03:42.003Z,42.67
2018-11-22T02:05:45.347Z,35.83
2018-11-22T02:07:48.782Z,42.13
2018-11-22T02:09:52.314Z,42.63
2018-11-22T02:11:55.625Z,39.50
2018-11-22T02:13:58.841Z,41.27
2018-11-22T02:16:03.438Z,43.13
2018-11-22T02:18:06.975Z,43.00
2018-11-22T02:20:12.641Z,41.37
2018-11-22T02:22:15.932Z,42.17
2018-11-22T02:24:19.307Z,41.97
2018-11-22T02:26:22.549Z,42.33
2018-11-22T02:28:25.812Z,38.53
2018-11-22T02:30:30.475Z,39.63
2018-11-22T02:32:33.842Z,36.83
2018-11-22T02:34:38.199Z,40.00
2018-11-22T02:36:41.627Z,41.57
2018-11-22T02:38:45.052Z,40.27
2018-11-22T02:40:48.534Z,40.83
2018-11-22T02:42:52.848Z,43.90
2018-11-22T02:44:56.148Z,40.23
2018-11-22T02:46:59.450Z,42.93
2018-11-22T02:49:02.706Z,44.00
2018-11-22T02:51:05.955Z,37.60
2018-11-22T02:53:11.176Z,39.27
2018-11-22T02:55:14.564Z,39.37
2018-11-22T02:57:17.994Z,41.47
2018-11-22T02:59:21.270Z,44.87
2018-11-22T03:01:24.560Z,39.83
2018-11-22T03:03:27.821Z,47.87
2018-11-22T12:17:42.018Z,21.53
2018-11-22T12:19:47.418Z,23.20
2018-11-22T12:21:51.419Z,19.83
2018-11-22T12:23:54.863Z,26.13
2018-11-22T12:25:58.102Z,21.37
2018-11-22T12:28:03.458Z,22.47
2018-11-22T12:30:11.979Z,22.80
2018-11-22T12:32:21.727Z,22.50
2018-11-22T12:34:29.537Z,26.10
2018-11-22T12:36:38.322Z,21.40
2018-11-22T12:38:42.187Z,20.97
2018-11-22T12:40:47.585Z,22.70
2018-11-22T12:42:51.423Z,25.37
2018-11-22T12:45:00.310Z,19.63
2018-11-22T12:47:04.514Z,21.33
2018-11-22T12:49:07.765Z,19.10
2018-11-22T12:51:11.587Z,24.33
2018-11-22T12:53:15.782Z,35.00
2018-11-22T12:55:19.240Z,26.97
2018-11-22T12:57:22.494Z,21.40
2018-11-22T12:59:25.965Z,20.07
2018-11-22T13:01:32.314Z,21.87
2018-11-22T13:03:36.015Z,22.37
2018-11-22T13:05:39.361Z,22.93
2018-11-22T13:07:42.812Z,26.63
2018-11-22T13:09:46.949Z,20.93
2018-11-22T13:11:51.139Z,18.67
2018-11-22T13:13:54.995Z,21.20
2018-11-22T13:15:58.278Z,22.27
2018-11-22T13:18:01.564Z,22.13
2018-11-22T13:20:07.194Z,22.23
2018-11-22T13:22:11.018Z,23.23
2018-11-22T13:24:15.176Z,23.37
2018-11-22T13:26:18.767Z,19.63
2018-11-22T13:28:22.164Z,18.07
2018-11-22T13:30:27.052Z,19.87
2018-11-22T13:32:30.537Z,21.40
2018-11-22T13:34:33.901Z,19.60
2018-11-22T13:36:37.175Z,19.63
2018-11-22T13:38:40.419Z,18.37
2018-11-22T13:40:43.898Z,20.80
2018-11-22T13:42:51.818Z,19.30
2018-11-22T13:44:55.702Z,19.90
2018-11-22T13:46:59.270Z,21.57
2018-11-22T13:49:02.689Z,17.60
2018-11-22T13:51:05.976Z,19.17
2018-11-22T13:53:09.550Z,20.57
2018-11-22T13:55:13.516Z,21.73
2018-11-22T13:57:17.854Z,19.93
2018-11-22T13:59:21.406Z,19.17
2018-11-22T14:01:25.662Z,19.37
2018-11-22T14:03:30.425Z,18.10
2018-11-22T14:05:33.721Z,21.03
2018-11-22T14:07:37.369Z,22.07
2018-11-22T14:09:40.703Z,22.67
2018-11-22T14:11:45.200Z,23.23
2018-11-22T14:13:49.423Z,21.70
2018-11-22T14:15:52.827Z,23.33
2018-11-22T14:17:58.288Z,23.10
2018-11-22T14:20:02.327Z,20.77
2018-11-22T14:22:06.701Z,20.33
2018-11-22T14:24:10.547Z,21.83
2018-11-22T14:26:14.375Z,21.33
2018-11-22T14:28:18.655Z,20.83
2018-11-22T14:30:23.759Z,22.80
2018-11-22T14:32:27.510Z,21.47
2018-11-22T14:34:31.239Z,20.27
2018-11-22T14:36:34.486Z,23.77
2018-11-22T14:38:38.702Z,18.67
2018-11-22T14:40:41.961Z,20.73
2018-11-22T14:42:46.220Z,22.27
2018-11-22T14:44:50.640Z,27.17
2018-11-22T14:46:53.905Z,25.67
2018-11-22T14:48:58.573Z,22.50
2018-11-22T14:51:13.569Z,24.20
2018-11-22T14:53:19.374Z,23.57
2018-11-22T14:55:23.295Z,21.87
2018-11-22T14:57:27.209Z,20.77
2018-11-22T14:59:30.918Z,24.67
2018-11-22T15:01:33.881Z,24.13
2018-11-22T15:03:37.191Z,25.07
2018-11-22T15:05:42.360Z,22.37
2018-11-22T15:07:46.685Z,19.80
2018-11-22T15:09:51.154Z,22.90
2018-11-22T15:11:54.600Z,24.33
2018-11-22T15:13:57.870Z,25.70
2018-11-22T15:16:01.814Z,22.47
2018-11-22T15:18:05.090Z,23.30
2018-11-22T15:20:10.725Z,23.80
2018-11-22T15:22:14.586Z,21.83
2018-11-22T15:24:18.319Z,22.07
2018-11-22T15:26:22.359Z,26.47
2018-11-22T15:28:26.066Z,25.70
2018-11-22T15:30:30.215Z,25.47
2018-11-22T15:32:33.308Z,22.80
2018-11-22T15:34:36.577Z,23.73
2018-11-22T15:36:40.338Z,22.83
2018-11-22T15:38:43.574Z,22.23
2018-11-22T15:40:48.182Z,24.47
2018-11-22T15:42:52.946Z,23.57
2018-11-22T15:44:56.294Z,24.20
2018-11-22T15:47:00.454Z,25.10
2018-11-22T15:49:03.847Z,23.90
2018-11-22T15:51:07.531Z,22.53
2018-11-22T15:53:10.847Z,23.20
2018-11-22T15:55:20.807Z,22.03
2018-11-22T15:57:19.388Z,25.20
2018-11-22T15:59:23.118Z,24.57
2018-11-22T16:01:26.798Z,22.83
2018-11-22T16:03:29.758Z,24.53
2018-11-22T16:05:33.418Z,24.33
2018-11-22T16:07:38.095Z,23.57
2018-11-22T16:09:41.343Z,22.70
2018-11-22T16:11:46.306Z,24.67
2018-11-22T16:13:50.687Z,23.13
2018-11-22T16:15:54.822Z,25.27
2018-11-22T16:17:58.537Z,24.63
2018-11-22T16:20:01.781Z,25.63
2018-11-22T16:22:05.732Z,27.00
2018-11-22T16:24:10.108Z,25.30
2018-11-22T16:26:13.383Z,27.73
2018-11-22T16:28:18.604Z,25.77
2018-11-22T16:30:23.563Z,23.90
2018-11-22T16:32:27.367Z,25.70
2018-11-22T16:34:31.554Z,24.83
2018-11-22T16:36:35.721Z,29.47
2018-11-22T16:38:40.931Z,23.53
2018-11-22T16:40:44.409Z,27.73
2018-11-22T16:42:52.590Z,22.13
2018-11-22T16:44:55.995Z,28.60
2018-11-22T16:46:59.290Z,26.07
2018-11-22T16:49:03.667Z,23.33
2018-11-22T16:51:06.934Z,26.70
2018-11-22T16:53:10.772Z,24.57
2018-11-22T16:55:14.615Z,29.80
2018-11-22T16:57:18.742Z,24.47
2018-11-22T16:59:23.468Z,26.53
2018-11-22T17:01:28.294Z,25.67
2018-11-22T17:03:32.879Z,23.50
2018-11-22T17:05:36.919Z,26.13
2018-11-22T17:07:41.000Z,21.13
2018-11-22T17:09:45.971Z,24.03
2018-11-22T17:11:50.216Z,29.87
2018-11-22T17:13:54.186Z,25.50
2018-11-22T17:15:57.910Z,29.03
2018-11-22T17:18:01.836Z,27.97
2018-11-22T17:20:06.594Z,28.20
2018-11-22T17:22:10.004Z,28.90
2018-11-22T17:24:14.441Z,27.77
2018-11-22T17:26:19.375Z,29.97
2018-11-22T17:28:24.251Z,30.00
2018-11-22T17:30:37.050Z,29.63
2018-11-22T17:32:40.914Z,28.80
2018-11-22T17:34:44.679Z,27.73
2018-11-22T17:36:50.737Z,30.53
2018-11-22T17:38:56.037Z,31.70
2018-11-22T17:40:59.750Z,27.20
2018-11-22T17:43:02.874Z,27.93
2018-11-22T17:45:08.179Z,26.90
2018-11-22T17:47:11.198Z,32.90
2018-11-22T17:49:15.357Z,31.93
2018-11-22T17:51:24.497Z,25.77
2018-11-22T17:53:28.171Z,29.47
2018-11-22T17:55:33.122Z,34.97
2018-11-22T17:57:38.395Z,35.17
2018-11-22T17:59:41.735Z,32.07
2018-11-22T18:01:45.790Z,27.43
2018-11-22T18:03:50.398Z,29.77
2018-11-22T18:05:55.100Z,31.50
2018-11-22T18:07:58.625Z,26.67
2018-11-22T18:10:02.697Z,30.67
2018-11-22T18:12:08.354Z,31.57
2018-11-22T18:14:12.055Z,27.47
2018-11-22T18:16:18.919Z,33.90
2018-11-22T18:18:24.463Z,33.53
2018-11-22T18:20:29.708Z,30.83
2018-11-22T18:22:33.588Z,51.30
2018-11-22T18:24:38.793Z,34.07
2018-11-22T18:26:42.757Z,36.97
2018-11-22T18:28:47.610Z,39.37
2018-11-22T18:30:51.934Z,42.60
2018-11-22T18:32:58.668Z,38.43
2018-11-22T18:35:02.147Z,48.57
2018-11-22T18:37:06.138Z,56.63
2018-11-22T18:39:10.259Z,40.63
2018-11-22T18:41:14.470Z,43.87
2018-11-22T18:43:19.918Z,46.27
2018-11-22T18:45:29.215Z,41.10
2018-11-22T18:47:33.781Z,45.90
2018-11-22T18:49:37.885Z,50.57
2018-11-22T18:51:41.511Z,38.60
2018-11-22T18:53:48.576Z,38.47
2018-11-22T18:55:54.800Z,33.47
2018-11-22T18:57:58.876Z,35.70
2018-11-22T19:00:02.690Z,33.40
2018-11-22T19:02:08.115Z,27.20
2018-11-22T19:04:10.934Z,25.77
2018-11-22T19:06:14.906Z,27.50
2018-11-22T19:08:19.808Z,32.70
2018-11-22T19:10:26.048Z,28.20
2018-11-22T19:12:31.292Z,27.97
2018-11-22T19:14:35.814Z,28.93
2018-11-22T19:16:40.074Z,27.83
2018-11-22T19:18:45.212Z,26.37
2018-11-22T19:20:49.813Z,30.87
2018-11-22T19:22:55.318Z,29.43
2018-11-22T19:25:01.760Z,25.57
2018-11-22T19:27:05.883Z,23.13
2018-11-22T19:29:10.793Z,23.23
2018-11-22T19:31:14.752Z,25.83
2018-11-22T19:33:19.623Z,31.13
2018-11-22T19:35:27.065Z,30.03
2018-11-22T19:37:31.815Z,27.77
2018-11-22T19:39:35.900Z,27.23
2018-11-22T19:41:40.536Z,26.20
2018-11-22T19:43:46.638Z,29.63
2018-11-22T19:45:51.669Z,36.43
2018-11-22T19:47:56.438Z,23.13
2018-11-22T19:50:01.916Z,26.43
2018-11-22T19:52:05.499Z,24.50
2018-11-22T19:54:09.473Z,26.00
2018-11-22T19:56:14.011Z,19.93
2018-11-22T19:58:19.623Z,23.00
2018-11-22T20:00:25.226Z,26.33
2018-11-22T20:02:30.760Z,26.57
2018-11-22T20:04:34.026Z,22.27
2018-11-22T20:06:37.730Z,24.63
2018-11-22T20:08:41.423Z,26.90
2018-11-22T20:10:45.813Z,25.07
2018-11-22T20:12:49.508Z,26.20
2018-11-22T20:14:53.246Z,22.00
2018-11-22T20:16:57.065Z,24.73
2018-11-22T20:19:00.655Z,25.73
2018-11-22T20:21:05.652Z,26.17
2018-11-22T20:23:09.846Z,22.33
2018-11-22T20:25:13.179Z,27.80
2018-11-22T20:27:17.195Z,23.10
2018-11-22T20:29:23.306Z,25.57
2018-11-22T20:31:27.407Z,26.43
2018-11-22T20:33:30.889Z,21.03
2018-11-22T20:35:34.374Z,34.43
2018-11-22T20:37:39.335Z,37.60
2018-11-22T20:39:42.602Z,27.67
2018-11-22T20:41:46.295Z,32.40
2018-11-22T20:43:50.545Z,26.00
2018-11-22T20:45:54.450Z,23.77
2018-11-22T20:48:01.044Z,24.00
2018-11-22T20:50:06.562Z,26.77
2018-11-22T20:52:11.145Z,25.63
2018-11-22T20:54:14.409Z,25.87
2018-11-22T20:56:18.155Z,24.17
2018-11-22T20:58:22.987Z,24.80
2018-11-22T21:00:28.247Z,31.63
2018-11-22T21:02:31.978Z,27.97
2018-11-22T21:04:35.351Z,24.37
2018-11-22T21:06:38.595Z,30.83
2018-11-22T21:08:48.400Z,24.30
2018-11-22T21:10:46.799Z,31.03
2018-11-22T21:12:51.770Z,25.47
2018-11-22T21:14:55.422Z,22.97
2018-11-22T21:16:58.977Z,28.20
2018-11-22T21:19:04.059Z,29.57
2018-11-22T21:21:07.317Z,29.90
2018-11-22T21:23:10.946Z,32.80
2018-11-22T21:25:18.904Z,24.77
2018-11-22T21:27:22.908Z,25.27
2018-11-22T21:29:27.027Z,26.30
2018-11-22T21:31:31.231Z,25.63
2018-11-22T21:33:36.383Z,25.50
2018-11-22T21:35:39.541Z,27.87
2018-11-22T21:37:43.105Z,21.80
2018-11-22T21:39:47.477Z,23.90
2018-11-22T21:41:52.019Z,25.10
2018-11-22T21:43:56.298Z,27.30
2018-11-22T21:45:59.764Z,22.23
2018-11-22T21:48:02.925Z,27.90
2018-11-22T21:50:08.102Z,25.93
2018-11-22T21:52:11.917Z,22.33
2018-11-22T21:54:15.157Z,26.17
2018-11-22T21:56:25.712Z,25.30
2018-11-22T21:58:29.017Z,23.90
2018-11-22T22:00:36.040Z,26.17
2018-11-22T22:02:38.988Z,20.23
2018-11-22T22:04:42.148Z,23.13
2018-11-22T22:06:45.289Z,20.63
2018-11-22T22:08:48.522Z,20.47
2018-11-22T22:10:52.493Z,27.37
2018-11-22T22:12:56.716Z,22.47
2018-11-22T22:15:00.119Z,25.07
2018-11-22T22:17:03.249Z,24.90
2018-11-22T22:19:06.721Z,25.13
2018-11-22T22:21:10.054Z,21.57
2018-11-22T22:23:13.767Z,24.77
2018-11-22T22:25:17.685Z,27.30
2018-11-22T22:27:21.914Z,28.37
2018-11-22T22:29:25.272Z,25.63
2018-11-22T22:31:31.318Z,27.27
2018-11-22T22:33:34.698Z,27.47
2018-11-22T22:35:39.563Z,25.80
2018-11-22T22:37:43.798Z,26.00
2018-11-22T22:39:47.077Z,25.27
2018-11-22T22:41:50.889Z,32.30
2018-11-22T22:43:54.348Z,29.90
2018-11-22T22:45:57.801Z,25.13
2018-11-22T22:48:01.073Z,62.17
2018-11-22T22:50:05.510Z,110.35
2018-11-22T22:52:08.658Z,46.77
2018-11-22T22:54:11.817Z,24.57
2018-11-22T22:56:15.197Z,22.73
2018-11-22T22:58:19.885Z,26.67
2018-11-22T23:00:30.933Z,25.40
2018-11-22T23:02:34.163Z,28.00
2018-11-22T23:04:37.314Z,26.13
2018-11-22T23:06:40.459Z,27.17
2018-11-22T23:08:43.678Z,26.57
2018-11-22T23:10:46.857Z,30.20
2018-11-22T23:12:52.311Z,24.50
2018-11-22T23:14:57.059Z,29.50
2018-11-22T23:17:00.357Z,28.10
2018-11-22T23:19:03.713Z,24.43
2018-11-22T23:21:06.882Z,26.33
2018-11-22T23:23:10.071Z,27.80
2018-11-22T23:25:13.901Z,30.30
2018-11-22T23:27:16.817Z,24.50
2018-11-22T23:29:21.802Z,23.63
2018-11-22T23:31:25.965Z,24.63
2018-11-22T23:33:29.197Z,22.83
2018-11-22T23:35:32.710Z,24.60
2018-11-22T23:37:35.870Z,28.67
2018-11-22T23:39:39.456Z,31.93
2018-11-22T23:41:42.357Z,23.10
2018-11-22T23:43:45.515Z,25.00
2018-11-22T23:45:48.918Z,25.03
2018-11-22T23:47:54.941Z,21.67
2018-11-22T23:49:58.473Z,29.17
2018-11-22T23:52:01.880Z,32.07
2018-11-22T23:54:05.058Z,31.73
2018-11-22T23:56:08.255Z,28.30
2018-11-22T23:58:11.404Z,30.07
